sensor_id;sensor_type;location;lat;lon;timestamp;temperature;humidity
11650;DHT22;5881;48.522;7.682;2022-10-26T00:02:15;13.10;99.90
11650;DHT22;5881;48.522;7.682;2022-10-26T00:04:40;13.20;99.90
11650;DHT22;5881;48.522;7.682;2022-10-26T00:07:06;13.10;99.90
11650;DHT22;5881;48.522;7.682;2022-10-26T00:09:31;13.10;99.90
11650;DHT22;5881;48.522;7.682;2022-10-26T00:11:57;13.20;99.90
11650;DHT22;5881;48.522;7.682;2022-10-26T00:14:23;13.20;99.90
11650;DHT22;5881;48.522;7.682;2022-10-26T00:16:48;13.20;99.90
11650;DHT22;5881;48.522;7.682;2022-10-26T00:19:14;13.20;99.90
11650;DHT22;5881;48.522;7.682;2022-10-26T00:21:39;13.20;99.90
11650;DHT22;5881;48.522;7.682;2022-10-26T00:24:05;13.20;99.90
11650;DHT22;5881;48.522;7.682;2022-10-26T00:26:31;13.20;99.90
11650;DHT22;5881;48.522;7.682;2022-10-26T00:28:56;13.20;99.90
11650;DHT22;5881;48.522;7.682;2022-10-26T00:31:23;13.20;99.90
11650;DHT22;5881;48.522;7.682;2022-10-26T00:33:53;13.20;99.90
11650;DHT22;5881;48.522;7.682;2022-10-26T00:36:19;13.40;99.90
11650;DHT22;5881;48.522;7.682;2022-10-26T00:38:53;13.30;99.90
11650;DHT22;5881;48.522;7.682;2022-10-26T00:41:22;13.20;99.90
11650;DHT22;5881;48.522;7.682;2022-10-26T00:43:49;13.20;99.90
11650;DHT22;5881;48.522;7.682;2022-10-26T00:46:21;13.10;99.90
11650;DHT22;5881;48.522;7.682;2022-10-26T00:48:51;13.10;99.90
11650;DHT22;5881;48.522;7.682;2022-10-26T00:51:36;13.00;99.90
11650;DHT22;5881;48.522;7.682;2022-10-26T00:54:05;13.00;99.90
11650;DHT22;5881;48.522;7.682;2022-10-26T00:56:32;13.10;99.90
11650;DHT22;5881;48.522;7.682;2022-10-26T00:59:01;13.20;99.90
11650;DHT22;5881;48.522;7.682;2022-10-26T01:01:30;13.10;99.90
11650;DHT22;5881;48.522;7.682;2022-10-26T01:03:56;13.10;99.90
11650;DHT22;5881;48.522;7.682;2022-10-26T01:06:22;13.10;99.90
11650;DHT22;5881;48.522;7.682;2022-10-26T01:08:49;13.00;99.90
11650;DHT22;5881;48.522;7.682;2022-10-26T01:11:15;13.00;99.90
11650;DHT22;5881;48.522;7.682;2022-10-26T01:13:42;12.90;99.90
11650;DHT22;5881;48.522;7.682;2022-10-26T01:25:55;12.60;99.90
11650;DHT22;5881;48.522;7.682;2022-10-26T01:28:52;12.60;99.90
11650;DHT22;5881;48.522;7.682;2022-10-26T01:31:26;12.50;99.90
11650;DHT22;5881;48.522;7.682;2022-10-26T01:34:02;12.50;99.90
11650;DHT22;5881;48.522;7.682;2022-10-26T01:36:37;12.40;99.90
11650;DHT22;5881;48.522;7.682;2022-10-26T01:39:15;12.40;99.90
11650;DHT22;5881;48.522;7.682;2022-10-26T01:41:44;12.40;99.90
11650;DHT22;5881;48.522;7.682;2022-10-26T01:44:24;12.30;99.90
11650;DHT22;5881;48.522;7.682;2022-10-26T01:46:52;12.30;99.90
11650;DHT22;5881;48.522;7.682;2022-10-26T01:49:25;12.40;99.90
11650;DHT22;5881;48.522;7.682;2022-10-26T01:51:52;12.50;99.90
11650;DHT22;5881;48.522;7.682;2022-10-26T01:54:17;12.50;99.90
11650;DHT22;5881;48.522;7.682;2022-10-26T01:56:50;12.60;99.90
11650;DHT22;5881;48.522;7.682;2022-10-26T02:07:55;12.40;99.90
11650;DHT22;5881;48.522;7.682;2022-10-26T02:10:34;12.40;99.90
11650;DHT22;5881;48.522;7.682;2022-10-26T02:13:19;12.40;99.90
11650;DHT22;5881;48.522;7.682;2022-10-26T02:18:50;12.50;99.90
11650;DHT22;5881;48.522;7.682;2022-10-26T02:21:20;12.50;99.90
11650;DHT22;5881;48.522;7.682;2022-10-26T02:23:48;12.60;99.90
11650;DHT22;5881;48.522;7.682;2022-10-26T02:26:18;12.70;99.90
11650;DHT22;5881;48.522;7.682;2022-10-26T02:28:47;12.70;99.90
11650;DHT22;5881;48.522;7.682;2022-10-26T02:31:14;12.80;99.90
11650;DHT22;5881;48.522;7.682;2022-10-26T02:33:45;12.80;99.90
11650;DHT22;5881;48.522;7.682;2022-10-26T02:36:15;12.70;99.90
11650;DHT22;5881;48.522;7.682;2022-10-26T02:38:42;12.70;99.90
11650;DHT22;5881;48.522;7.682;2022-10-26T02:41:10;12.70;99.90
11650;DHT22;5881;48.522;7.682;2022-10-26T02:43:42;12.70;99.90
11650;DHT22;5881;48.522;7.682;2022-10-26T02:46:12;12.70;99.90
11650;DHT22;5881;48.522;7.682;2022-10-26T02:48:39;12.70;99.90
11650;DHT22;5881;48.522;7.682;2022-10-26T02:51:29;12.70;99.90
11650;DHT22;5881;48.522;7.682;2022-10-26T02:54:04;12.80;99.90
11650;DHT22;5881;48.522;7.682;2022-10-26T02:56:50;12.90;99.90
11650;DHT22;5881;48.522;7.682;2022-10-26T02:59:19;12.80;99.90
11650;DHT22;5881;48.522;7.682;2022-10-26T03:01:45;12.90;99.90
11650;DHT22;5881;48.522;7.682;2022-10-26T03:04:11;12.90;99.90
11650;DHT22;5881;48.522;7.682;2022-10-26T03:06:37;13.00;99.90
11650;DHT22;5881;48.522;7.682;2022-10-26T03:09:03;13.00;1.00
11650;DHT22;5881;48.522;7.682;2022-10-26T03:11:28;13.00;1.00
11650;DHT22;5881;48.522;7.682;2022-10-26T03:13:54;13.00;1.00
11650;DHT22;5881;48.522;7.682;2022-10-26T03:16:19;13.10;1.00
11650;DHT22;5881;48.522;7.682;2022-10-26T03:18:45;13.10;1.00
11650;DHT22;5881;48.522;7.682;2022-10-26T03:21:10;13.10;1.00
11650;DHT22;5881;48.522;7.682;2022-10-26T03:23:36;13.10;1.00
11650;DHT22;5881;48.522;7.682;2022-10-26T03:26:02;13.10;1.00
11650;DHT22;5881;48.522;7.682;2022-10-26T03:28:27;13.10;1.00
11650;DHT22;5881;48.522;7.682;2022-10-26T03:30:53;13.10;1.00
11650;DHT22;5881;48.522;7.682;2022-10-26T03:33:18;13.00;1.00
11650;DHT22;5881;48.522;7.682;2022-10-26T03:35:44;13.00;99.90
11650;DHT22;5881;48.522;7.682;2022-10-26T03:38:09;12.90;99.90
11650;DHT22;5881;48.522;7.682;2022-10-26T03:40:35;12.90;99.90
11650;DHT22;5881;48.522;7.682;2022-10-26T03:43:02;12.90;99.90
11650;DHT22;5881;48.522;7.682;2022-10-26T03:45:27;12.90;99.90
11650;DHT22;5881;48.522;7.682;2022-10-26T03:47:53;12.90;99.90
11650;DHT22;5881;48.522;7.682;2022-10-26T03:50:20;13.00;99.90
11650;DHT22;5881;48.522;7.682;2022-10-26T03:52:47;12.90;99.90
11650;DHT22;5881;48.522;7.682;2022-10-26T03:55:13;13.00;99.90
11650;DHT22;5881;48.522;7.682;2022-10-26T03:57:40;13.00;99.90
11650;DHT22;5881;48.522;7.682;2022-10-26T04:00:07;13.00;99.90
11650;DHT22;5881;48.522;7.682;2022-10-26T04:02:33;13.00;99.90
11650;DHT22;5881;48.522;7.682;2022-10-26T04:04:59;13.00;99.90
11650;DHT22;5881;48.522;7.682;2022-10-26T04:07:24;13.10;99.90
11650;DHT22;5881;48.522;7.682;2022-10-26T04:09:50;13.10;99.90
11650;DHT22;5881;48.522;7.682;2022-10-26T04:12:15;13.10;99.90
11650;DHT22;5881;48.522;7.682;2022-10-26T04:14:41;13.10;99.90
11650;DHT22;5881;48.522;7.682;2022-10-26T04:17:06;13.10;99.90
11650;DHT22;5881;48.522;7.682;2022-10-26T04:19:32;13.10;99.90
11650;DHT22;5881;48.522;7.682;2022-10-26T04:21:57;13.10;99.90
11650;DHT22;5881;48.522;7.682;2022-10-26T04:24:23;13.10;99.90
11650;DHT22;5881;48.522;7.682;2022-10-26T04:26:49;13.10;99.90
11650;DHT22;5881;48.522;7.682;2022-10-26T04:29:14;13.10;99.90
11650;DHT22;5881;48.522;7.682;2022-10-26T04:31:40;13.10;99.90
11650;DHT22;5881;48.522;7.682;2022-10-26T04:34:06;13.10;99.90
11650;DHT22;5881;48.522;7.682;2022-10-26T04:36:32;13.10;99.90
11650;DHT22;5881;48.522;7.682;2022-10-26T04:38:58;13.10;99.90
11650;DHT22;5881;48.522;7.682;2022-10-26T04:41:24;13.10;99.90
11650;DHT22;5881;48.522;7.682;2022-10-26T04:43:50;13.10;99.90
11650;DHT22;5881;48.522;7.682;2022-10-26T04:46:15;13.10;99.90
11650;DHT22;5881;48.522;7.682;2022-10-26T04:48:41;13.10;99.90
11650;DHT22;5881;48.522;7.682;2022-10-26T04:51:06;13.10;99.90
11650;DHT22;5881;48.522;7.682;2022-10-26T04:53:32;13.10;99.90
11650;DHT22;5881;48.522;7.682;2022-10-26T04:55:59;13.10;99.90
11650;DHT22;5881;48.522;7.682;2022-10-26T04:58:26;13.10;99.90
11650;DHT22;5881;48.522;7.682;2022-10-26T05:00:53;13.10;99.90
11650;DHT22;5881;48.522;7.682;2022-10-26T05:03:18;13.20;99.90
11650;DHT22;5881;48.522;7.682;2022-10-26T05:05:44;13.20;99.90
11650;DHT22;5881;48.522;7.682;2022-10-26T05:08:12;13.20;99.90
11650;DHT22;5881;48.522;7.682;2022-10-26T05:10:37;13.20;99.90
11650;DHT22;5881;48.522;7.682;2022-10-26T05:13:03;13.20;71.80
11650;DHT22;5881;48.522;7.682;2022-10-26T05:15:29;13.30;1.00
11650;DHT22;5881;48.522;7.682;2022-10-26T05:18:00;13.30;1.00
11650;DHT22;5881;48.522;7.682;2022-10-26T05:20:29;13.30;1.00
11650;DHT22;5881;48.522;7.682;2022-10-26T05:23:00;13.40;1.00
11650;DHT22;5881;48.522;7.682;2022-10-26T05:25:27;13.40;1.00
11650;DHT22;5881;48.522;7.682;2022-10-26T05:27:57;13.30;1.00
11650;DHT22;5881;48.522;7.682;2022-10-26T05:30:23;13.40;1.00
11650;DHT22;5881;48.522;7.682;2022-10-26T05:32:56;13.40;1.00
11650;DHT22;5881;48.522;7.682;2022-10-26T05:35:22;13.40;1.00
11650;DHT22;5881;48.522;7.682;2022-10-26T05:37:47;13.40;1.00
11650;DHT22;5881;48.522;7.682;2022-10-26T05:40:13;13.40;1.00
11650;DHT22;5881;48.522;7.682;2022-10-26T05:42:40;13.40;1.00
11650;DHT22;5881;48.522;7.682;2022-10-26T05:45:05;13.50;1.00
11650;DHT22;5881;48.522;7.682;2022-10-26T05:47:31;13.50;1.00
11650;DHT22;5881;48.522;7.682;2022-10-26T05:49:57;13.60;1.00
11650;DHT22;5881;48.522;7.682;2022-10-26T05:52:22;13.60;1.00
11650;DHT22;5881;48.522;7.682;2022-10-26T05:54:48;13.60;1.00
11650;DHT22;5881;48.522;7.682;2022-10-26T05:57:14;13.60;1.00
11650;DHT22;5881;48.522;7.682;2022-10-26T05:59:40;13.50;1.00
11650;DHT22;5881;48.522;7.682;2022-10-26T06:02:34;13.60;1.00
11650;DHT22;5881;48.522;7.682;2022-10-26T06:05:03;13.60;1.00
11650;DHT22;5881;48.522;7.682;2022-10-26T06:07:29;13.60;1.00
11650;DHT22;5881;48.522;7.682;2022-10-26T06:09:56;13.60;1.00
11650;DHT22;5881;48.522;7.682;2022-10-26T06:12:22;13.60;1.00
11650;DHT22;5881;48.522;7.682;2022-10-26T06:14:50;13.60;1.00
11650;DHT22;5881;48.522;7.682;2022-10-26T06:17:45;13.60;1.00
11650;DHT22;5881;48.522;7.682;2022-10-26T06:20:33;13.70;1.00
11650;DHT22;5881;48.522;7.682;2022-10-26T06:30:41;13.80;1.00
11650;DHT22;5881;48.522;7.682;2022-10-26T06:33:09;13.90;1.00
11650;DHT22;5881;48.522;7.682;2022-10-26T06:38:20;14.00;1.00
11650;DHT22;5881;48.522;7.682;2022-10-26T06:40:50;14.10;1.00
11650;DHT22;5881;48.522;7.682;2022-10-26T06:43:23;14.20;1.00
11650;DHT22;5881;48.522;7.682;2022-10-26T06:51:19;14.40;1.00
11650;DHT22;5881;48.522;7.682;2022-10-26T06:54:06;14.40;99.90
11650;DHT22;5881;48.522;7.682;2022-10-26T06:56:33;14.50;99.90
11650;DHT22;5881;48.522;7.682;2022-10-26T06:59:07;14.60;1.00
11650;DHT22;5881;48.522;7.682;2022-10-26T07:01:33;14.70;99.90
11650;DHT22;5881;48.522;7.682;2022-10-26T07:03:58;14.70;99.90
11650;DHT22;5881;48.522;7.682;2022-10-26T07:06:24;14.70;99.90
11650;DHT22;5881;48.522;7.682;2022-10-26T07:08:50;14.70;99.90
11650;DHT22;5881;48.522;7.682;2022-10-26T07:11:15;14.70;99.90
11650;DHT22;5881;48.522;7.682;2022-10-26T07:13:41;14.60;99.90
11650;DHT22;5881;48.522;7.682;2022-10-26T07:16:06;14.70;99.90
11650;DHT22;5881;48.522;7.682;2022-10-26T07:18:32;14.70;99.90
11650;DHT22;5881;48.522;7.682;2022-10-26T07:20:58;14.70;99.90
11650;DHT22;5881;48.522;7.682;2022-10-26T07:23:23;14.80;99.90
11650;DHT22;5881;48.522;7.682;2022-10-26T07:25:49;14.90;99.90
11650;DHT22;5881;48.522;7.682;2022-10-26T07:28:15;14.80;99.90
11650;DHT22;5881;48.522;7.682;2022-10-26T07:30:40;14.80;99.90
11650;DHT22;5881;48.522;7.682;2022-10-26T07:33:11;14.80;99.90
11650;DHT22;5881;48.522;7.682;2022-10-26T07:35:37;14.90;99.90
11650;DHT22;5881;48.522;7.682;2022-10-26T07:38:03;15.00;99.90
11650;DHT22;5881;48.522;7.682;2022-10-26T07:40:29;15.10;99.90
11650;DHT22;5881;48.522;7.682;2022-10-26T07:42:59;15.20;99.90
11650;DHT22;5881;48.522;7.682;2022-10-26T07:45:26;15.30;99.90
11650;DHT22;5881;48.522;7.682;2022-10-26T07:47:52;15.40;99.90
11650;DHT22;5881;48.522;7.682;2022-10-26T07:50:17;15.40;99.90
11650;DHT22;5881;48.522;7.682;2022-10-26T07:52:43;15.60;99.90
11650;DHT22;5881;48.522;7.682;2022-10-26T07:55:09;15.80;99.90
11650;DHT22;5881;48.522;7.682;2022-10-26T07:57:35;15.90;99.90
11650;DHT22;5881;48.522;7.682;2022-10-26T08:00:03;16.10;99.90
11650;DHT22;5881;48.522;7.682;2022-10-26T08:02:28;16.00;99.90
11650;DHT22;5881;48.522;7.682;2022-10-26T08:04:54;16.10;99.90
11650;DHT22;5881;48.522;7.682;2022-10-26T08:07:20;15.90;99.90
11650;DHT22;5881;48.522;7.682;2022-10-26T08:09:46;16.10;99.90
11650;DHT22;5881;48.522;7.682;2022-10-26T08:12:11;16.70;99.90
11650;DHT22;5881;48.522;7.682;2022-10-26T08:14:41;16.50;99.90
11650;DHT22;5881;48.522;7.682;2022-10-26T08:17:07;16.90;99.90
11650;DHT22;5881;48.522;7.682;2022-10-26T08:19:33;16.80;99.90
11650;DHT22;5881;48.522;7.682;2022-10-26T08:21:58;16.90;99.90
11650;DHT22;5881;48.522;7.682;2022-10-26T08:24:24;16.40;99.90
11650;DHT22;5881;48.522;7.682;2022-10-26T08:26:49;16.10;99.90
11650;DHT22;5881;48.522;7.682;2022-10-26T08:29:15;16.00;99.90
11650;DHT22;5881;48.522;7.682;2022-10-26T08:31:41;15.90;99.90
11650;DHT22;5881;48.522;7.682;2022-10-26T08:34:06;15.90;99.90
11650;DHT22;5881;48.522;7.682;2022-10-26T08:36:32;15.80;99.90
11650;DHT22;5881;48.522;7.682;2022-10-26T08:38:58;15.80;99.90
11650;DHT22;5881;48.522;7.682;2022-10-26T08:41:37;15.70;99.90
11650;DHT22;5881;48.522;7.682;2022-10-26T08:46:45;15.70;99.90
11650;DHT22;5881;48.522;7.682;2022-10-26T08:49:26;15.70;99.90
11650;DHT22;5881;48.522;7.682;2022-10-26T08:52:00;15.60;99.90
11650;DHT22;5881;48.522;7.682;2022-10-26T08:56:58;15.70;99.90
11650;DHT22;5881;48.522;7.682;2022-10-26T09:01:54;15.70;99.90
11650;DHT22;5881;48.522;7.682;2022-10-26T09:04:25;15.80;99.90
11650;DHT22;5881;48.522;7.682;2022-10-26T09:23:54;16.70;99.90
11650;DHT22;5881;48.522;7.682;2022-10-26T09:26:44;17.20;99.90
11650;DHT22;5881;48.522;7.682;2022-10-26T09:29:14;17.10;99.90
11650;DHT22;5881;48.522;7.682;2022-10-26T09:31:43;17.50;99.90
11650;DHT22;5881;48.522;7.682;2022-10-26T09:34:36;18.30;99.90
11650;DHT22;5881;48.522;7.682;2022-10-26T09:37:34;18.30;99.90
11650;DHT22;5881;48.522;7.682;2022-10-26T09:40:10;18.80;99.90
11650;DHT22;5881;48.522;7.682;2022-10-26T09:45:19;19.60;99.90
11650;DHT22;5881;48.522;7.682;2022-10-26T09:47:51;19.90;99.90
11650;DHT22;5881;48.522;7.682;2022-10-26T09:50:21;20.40;99.90
11650;DHT22;5881;48.522;7.682;2022-10-26T09:52:47;19.60;99.90
11650;DHT22;5881;48.522;7.682;2022-10-26T09:55:13;19.30;99.90
11650;DHT22;5881;48.522;7.682;2022-10-26T09:57:41;19.30;99.90
11650;DHT22;5881;48.522;7.682;2022-10-26T10:00:15;19.10;99.90
11650;DHT22;5881;48.522;7.682;2022-10-26T10:02:42;18.90;99.90
11650;DHT22;5881;48.522;7.682;2022-10-26T10:05:27;18.70;99.90
11650;DHT22;5881;48.522;7.682;2022-10-26T10:08:10;18.60;99.90
11650;DHT22;5881;48.522;7.682;2022-10-26T10:10:37;18.50;99.90
11650;DHT22;5881;48.522;7.682;2022-10-26T10:13:18;18.50;99.90
11650;DHT22;5881;48.522;7.682;2022-10-26T10:15:53;18.50;99.90
11650;DHT22;5881;48.522;7.682;2022-10-26T10:18:20;18.30;99.90
11650;DHT22;5881;48.522;7.682;2022-10-26T10:20:52;18.10;99.90
11650;DHT22;5881;48.522;7.682;2022-10-26T10:23:49;17.90;99.90
11650;DHT22;5881;48.522;7.682;2022-10-26T10:26:16;17.80;99.90
11650;DHT22;5881;48.522;7.682;2022-10-26T10:28:42;17.90;99.90
11650;DHT22;5881;48.522;7.682;2022-10-26T10:31:22;17.90;99.90
11650;DHT22;5881;48.522;7.682;2022-10-26T10:33:51;18.00;99.90
11650;DHT22;5881;48.522;7.682;2022-10-26T10:36:19;18.10;99.90
11650;DHT22;5881;48.522;7.682;2022-10-26T10:38:48;18.20;99.90
11650;DHT22;5881;48.522;7.682;2022-10-26T10:41:20;18.20;99.90
11650;DHT22;5881;48.522;7.682;2022-10-26T10:43:52;18.30;99.90
11650;DHT22;5881;48.522;7.682;2022-10-26T10:46:21;18.40;99.90
11650;DHT22;5881;48.522;7.682;2022-10-26T10:48:52;18.50;99.90
11650;DHT22;5881;48.522;7.682;2022-10-26T10:51:22;18.70;99.90
11650;DHT22;5881;48.522;7.682;2022-10-26T10:53:53;18.70;99.90
11650;DHT22;5881;48.522;7.682;2022-10-26T11:07:23;19.60;99.90
11650;DHT22;5881;48.522;7.682;2022-10-26T11:09:50;20.50;99.90
11650;DHT22;5881;48.522;7.682;2022-10-26T11:12:22;21.80;99.90
11650;DHT22;5881;48.522;7.682;2022-10-26T11:14:58;22.60;99.90
11650;DHT22;5881;48.522;7.682;2022-10-26T11:17:30;23.40;99.90
11650;DHT22;5881;48.522;7.682;2022-10-26T11:20:02;23.20;95.50
11650;DHT22;5881;48.522;7.682;2022-10-26T11:22:34;23.60;86.10
11650;DHT22;5881;48.522;7.682;2022-10-26T11:25:15;23.50;79.20
11650;DHT22;5881;48.522;7.682;2022-10-26T11:27:49;23.40;88.00
11650;DHT22;5881;48.522;7.682;2022-10-26T11:30:19;23.50;61.00
11650;DHT22;5881;48.522;7.682;2022-10-26T11:33:00;23.30;56.30
11650;DHT22;5881;48.522;7.682;2022-10-26T11:35:29;23.00;53.60
11650;DHT22;5881;48.522;7.682;2022-10-26T11:38:16;23.00;54.00
11650;DHT22;5881;48.522;7.682;2022-10-26T11:43:37;23.00;48.00
11650;DHT22;5881;48.522;7.682;2022-10-26T11:46:50;22.80;46.50
11650;DHT22;5881;48.522;7.682;2022-10-26T11:52:01;23.00;41.20
11650;DHT22;5881;48.522;7.682;2022-10-26T11:57:00;23.50;35.20
11650;DHT22;5881;48.522;7.682;2022-10-26T11:59:30;23.60;28.90
11650;DHT22;5881;48.522;7.682;2022-10-26T12:02:01;23.50;28.50
11650;DHT22;5881;48.522;7.682;2022-10-26T12:04:31;23.00;28.40
11650;DHT22;5881;48.522;7.682;2022-10-26T12:07:00;22.70;28.00
11650;DHT22;5881;48.522;7.682;2022-10-26T12:09:31;22.90;28.80
11650;DHT22;5881;48.522;7.682;2022-10-26T12:12:00;22.70;28.50
11650;DHT22;5881;48.522;7.682;2022-10-26T12:14:40;22.70;29.60
11650;DHT22;5881;48.522;7.682;2022-10-26T12:17:15;22.70;32.10
11650;DHT22;5881;48.522;7.682;2022-10-26T12:20:05;22.60;29.50
11650;DHT22;5881;48.522;7.682;2022-10-26T12:22:35;22.70;28.90
11650;DHT22;5881;48.522;7.682;2022-10-26T12:40:47;22.80;23.50
11650;DHT22;5881;48.522;7.682;2022-10-26T12:45:39;22.90;24.20
11650;DHT22;5881;48.522;7.682;2022-10-26T12:48:20;22.90;25.40
11650;DHT22;5881;48.522;7.682;2022-10-26T12:50:46;23.10;25.80
11650;DHT22;5881;48.522;7.682;2022-10-26T12:53:14;23.20;26.50
11650;DHT22;5881;48.522;7.682;2022-10-26T13:08:45;23.10;23.10
11650;DHT22;5881;48.522;7.682;2022-10-26T13:11:23;23.10;22.50
11650;DHT22;5881;48.522;7.682;2022-10-26T13:13:55;23.00;21.30
11650;DHT22;5881;48.522;7.682;2022-10-26T13:16:23;22.90;34.60
11650;DHT22;5881;48.522;7.682;2022-10-26T13:18:49;22.90;21.80
11650;DHT22;5881;48.522;7.682;2022-10-26T13:21:16;22.90;21.90
11650;DHT22;5881;48.522;7.682;2022-10-26T13:23:56;22.90;22.20
11650;DHT22;5881;48.522;7.682;2022-10-26T13:26:27;22.90;21.30
11650;DHT22;5881;48.522;7.682;2022-10-26T13:28:55;22.80;23.70
11650;DHT22;5881;48.522;7.682;2022-10-26T13:34:19;22.90;23.40
11650;DHT22;5881;48.522;7.682;2022-10-26T13:39:40;22.80;30.00
11650;DHT22;5881;48.522;7.682;2022-10-26T13:42:14;22.70;23.70
11650;DHT22;5881;48.522;7.682;2022-10-26T13:44:58;22.40;40.60
11650;DHT22;5881;48.522;7.682;2022-10-26T13:48:35;22.20;99.90
11650;DHT22;5881;48.522;7.682;2022-10-26T13:50:51;22.20;91.50
11650;DHT22;5881;48.522;7.682;2022-10-26T13:53:33;22.20;53.80
11650;DHT22;5881;48.522;7.682;2022-10-26T13:58:48;22.20;24.60
11650;DHT22;5881;48.522;7.682;2022-10-26T14:01:16;22.20;46.30
11650;DHT22;5881;48.522;7.682;2022-10-26T14:03:42;22.20;27.40
11650;DHT22;5881;48.522;7.682;2022-10-26T14:06:16;22.40;21.60
11650;DHT22;5881;48.522;7.682;2022-10-26T14:08:43;22.40;19.70
11650;DHT22;5881;48.522;7.682;2022-10-26T14:11:13;22.40;17.80
11650;DHT22;5881;48.522;7.682;2022-10-26T14:13:40;22.30;20.30
11650;DHT22;5881;48.522;7.682;2022-10-26T14:16:09;22.30;26.20
11650;DHT22;5881;48.522;7.682;2022-10-26T14:18:35;22.30;22.00
11650;DHT22;5881;48.522;7.682;2022-10-26T14:21:07;22.20;19.40
11650;DHT22;5881;48.522;7.682;2022-10-26T14:26:39;22.30;26.30
11650;DHT22;5881;48.522;7.682;2022-10-26T14:29:17;22.30;25.20
11650;DHT22;5881;48.522;7.682;2022-10-26T14:31:45;22.40;24.90
11650;DHT22;5881;48.522;7.682;2022-10-26T14:34:11;22.20;63.30
11650;DHT22;5881;48.522;7.682;2022-10-26T14:39:06;22.00;99.90
11650;DHT22;5881;48.522;7.682;2022-10-26T14:41:34;22.10;99.90
11650;DHT22;5881;48.522;7.682;2022-10-26T14:44:01;22.10;99.90
11650;DHT22;5881;48.522;7.682;2022-10-26T14:46:32;22.00;99.90
11650;DHT22;5881;48.522;7.682;2022-10-26T14:48:59;21.70;99.90
11650;DHT22;5881;48.522;7.682;2022-10-26T14:51:34;21.50;99.90
11650;DHT22;5881;48.522;7.682;2022-10-26T14:54:01;21.50;99.90
11650;DHT22;5881;48.522;7.682;2022-10-26T14:56:39;21.30;99.90
11650;DHT22;5881;48.522;7.682;2022-10-26T14:59:24;21.10;1.00
11650;DHT22;5881;48.522;7.682;2022-10-26T15:04:39;20.70;99.90
11650;DHT22;5881;48.522;7.682;2022-10-26T15:07:15;20.50;59.00
11650;DHT22;5881;48.522;7.682;2022-10-26T15:09:50;20.30;32.90
11650;DHT22;5881;48.522;7.682;2022-10-26T15:12:31;20.10;99.90
11650;DHT22;5881;48.522;7.682;2022-10-26T15:17:46;20.00;99.90
11650;DHT22;5881;48.522;7.682;2022-10-26T15:20:18;19.90;99.90
11650;DHT22;5881;48.522;7.682;2022-10-26T15:22:59;19.80;99.90
11650;DHT22;5881;48.522;7.682;2022-10-26T15:25:31;19.70;99.90
11650;DHT22;5881;48.522;7.682;2022-10-26T15:28:45;19.60;99.90
11650;DHT22;5881;48.522;7.682;2022-10-26T15:31:32;19.50;99.90
11650;DHT22;5881;48.522;7.682;2022-10-26T15:36:31;19.20;99.90
11650;DHT22;5881;48.522;7.682;2022-10-26T15:38:58;19.20;99.90
11650;DHT22;5881;48.522;7.682;2022-10-26T15:41:31;19.10;99.90
11650;DHT22;5881;48.522;7.682;2022-10-26T15:43:59;19.10;99.90
11650;DHT22;5881;48.522;7.682;2022-10-26T15:46:32;19.10;99.90
11650;DHT22;5881;48.522;7.682;2022-10-26T15:49:00;19.10;99.90
11650;DHT22;5881;48.522;7.682;2022-10-26T15:51:27;19.00;99.90
11650;DHT22;5881;48.522;7.682;2022-10-26T15:53:56;18.80;99.90
11650;DHT22;5881;48.522;7.682;2022-10-26T15:56:23;18.80;99.90
11650;DHT22;5881;48.522;7.682;2022-10-26T15:58:50;18.70;99.90
11650;DHT22;5881;48.522;7.682;2022-10-26T16:01:18;18.50;99.90
11650;DHT22;5881;48.522;7.682;2022-10-26T16:03:44;18.50;40.60
11650;DHT22;5881;48.522;7.682;2022-10-26T16:08:48;18.20;99.90
11650;DHT22;5881;48.522;7.682;2022-10-26T16:11:14;18.10;99.90
11650;DHT22;5881;48.522;7.682;2022-10-26T16:13:40;18.00;99.90
11650;DHT22;5881;48.522;7.682;2022-10-26T16:16:13;17.80;99.90
11650;DHT22;5881;48.522;7.682;2022-10-26T16:18:40;17.80;99.90
11650;DHT22;5881;48.522;7.682;2022-10-26T16:21:09;17.70;99.90
11650;DHT22;5881;48.522;7.682;2022-10-26T16:23:38;17.50;99.90
11650;DHT22;5881;48.522;7.682;2022-10-26T16:26:04;17.40;99.90
11650;DHT22;5881;48.522;7.682;2022-10-26T16:28:31;17.30;99.90
11650;DHT22;5881;48.522;7.682;2022-10-26T16:31:06;17.30;1.00
11650;DHT22;5881;48.522;7.682;2022-10-26T16:33:35;17.30;1.00
11650;DHT22;5881;48.522;7.682;2022-10-26T16:36:01;17.20;99.90
11650;DHT22;5881;48.522;7.682;2022-10-26T16:38:27;17.00;99.90
11650;DHT22;5881;48.522;7.682;2022-10-26T16:41:15;16.90;99.90
11650;DHT22;5881;48.522;7.682;2022-10-26T16:43:42;16.80;99.90
11650;DHT22;5881;48.522;7.682;2022-10-26T16:46:14;16.70;99.90
11650;DHT22;5881;48.522;7.682;2022-10-26T16:48:41;16.60;99.90
11650;DHT22;5881;48.522;7.682;2022-10-26T16:51:20;16.60;99.90
11650;DHT22;5881;48.522;7.682;2022-10-26T16:53:47;16.50;99.90
11650;DHT22;5881;48.522;7.682;2022-10-26T16:56:16;16.50;99.90
11650;DHT22;5881;48.522;7.682;2022-10-26T16:58:42;16.40;99.90
11650;DHT22;5881;48.522;7.682;2022-10-26T17:01:09;16.50;99.90
11650;DHT22;5881;48.522;7.682;2022-10-26T17:03:38;16.40;99.90
11650;DHT22;5881;48.522;7.682;2022-10-26T17:06:05;16.40;99.90
11650;DHT22;5881;48.522;7.682;2022-10-26T17:08:33;16.30;99.90
11650;DHT22;5881;48.522;7.682;2022-10-26T17:11:10;16.20;99.90
11650;DHT22;5881;48.522;7.682;2022-10-26T17:13:37;16.10;1.00
11650;DHT22;5881;48.522;7.682;2022-10-26T17:16:10;16.10;1.00
11650;DHT22;5881;48.522;7.682;2022-10-26T17:18:35;16.00;1.00
11650;DHT22;5881;48.522;7.682;2022-10-26T17:21:02;16.00;1.00
11650;DHT22;5881;48.522;7.682;2022-10-26T17:23:28;16.00;1.00
11650;DHT22;5881;48.522;7.682;2022-10-26T17:25:54;15.90;1.00
11650;DHT22;5881;48.522;7.682;2022-10-26T17:28:19;15.80;1.00
11650;DHT22;5881;48.522;7.682;2022-10-26T17:30:45;15.90;1.00
11650;DHT22;5881;48.522;7.682;2022-10-26T17:33:11;15.80;1.00
11650;DHT22;5881;48.522;7.682;2022-10-26T17:35:37;15.80;1.00
11650;DHT22;5881;48.522;7.682;2022-10-26T17:38:03;15.90;1.00
11650;DHT22;5881;48.522;7.682;2022-10-26T17:40:29;15.90;1.00
11650;DHT22;5881;48.522;7.682;2022-10-26T17:42:55;15.90;99.90
11650;DHT22;5881;48.522;7.682;2022-10-26T17:45:20;15.70;1.00
11650;DHT22;5881;48.522;7.682;2022-10-26T17:47:46;15.70;1.00
11650;DHT22;5881;48.522;7.682;2022-10-26T17:50:12;15.70;1.00
11650;DHT22;5881;48.522;7.682;2022-10-26T17:52:37;15.60;1.00
11650;DHT22;5881;48.522;7.682;2022-10-26T17:55:03;15.50;1.00
11650;DHT22;5881;48.522;7.682;2022-10-26T17:57:30;15.50;1.00
11650;DHT22;5881;48.522;7.682;2022-10-26T17:59:56;15.40;1.00
11650;DHT22;5881;48.522;7.682;2022-10-26T18:02:21;15.40;1.00
11650;DHT22;5881;48.522;7.682;2022-10-26T18:04:47;15.30;1.00
11650;DHT22;5881;48.522;7.682;2022-10-26T18:07:12;15.20;1.00
11650;DHT22;5881;48.522;7.682;2022-10-26T18:09:38;15.20;1.00
11650;DHT22;5881;48.522;7.682;2022-10-26T18:12:04;15.10;31.70
11650;DHT22;5881;48.522;7.682;2022-10-26T18:14:30;15.10;81.10
11650;DHT22;5881;48.522;7.682;2022-10-26T18:16:55;15.10;99.00
11650;DHT22;5881;48.522;7.682;2022-10-26T18:19:21;15.10;99.90
11650;DHT22;5881;48.522;7.682;2022-10-26T18:21:47;15.10;95.80
11650;DHT22;5881;48.522;7.682;2022-10-26T18:24:12;15.10;50.90
11650;DHT22;5881;48.522;7.682;2022-10-26T18:26:38;15.00;73.90